sensor_id;sensor_type;location;lat;lon;timestamp;pressure;altitude;pressure_sealevel;temperature;humidity
76864;BME280;65834;52.364;9.754;2022-12-10T00:01:59;100164.81;;;-0.42;87.46
76864;BME280;65834;52.364;9.754;2022-12-10T00:04:29;100155.00;;;-0.31;87.02
76864;BME280;65834;52.364;9.754;2022-12-10T00:06:59;100154.72;;;-0.28;86.82
76864;BME280;65834;52.364;9.754;2022-12-10T00:09:31;100148.94;;;-0.33;86.97
76864;BME280;65834;52.364;9.754;2022-12-10T00:12:00;100156.66;;;-0.30;86.82
76864;BME280;65834;52.364;9.754;2022-12-10T00:14:30;100157.84;;;-0.23;86.67
76864;BME280;65834;52.364;9.754;2022-12-10T00:16:59;100154.22;;;-0.22;86.86
76864;BME280;65834;52.364;9.754;2022-12-10T00:19:35;100160.50;;;-0.23;86.75
76864;BME280;65834;52.364;9.754;2022-12-10T00:22:04;100162.19;;;-0.22;86.72
76864;BME280;65834;52.364;9.754;2022-12-10T00:24:37;100161.59;;;-0.25;86.77
76864;BME280;65834;52.364;9.754;2022-12-10T00:27:06;100164.50;;;-0.28;87.06
76864;BME280;65834;52.364;9.754;2022-12-10T00:29:36;100173.25;;;-0.17;86.97
76864;BME280;65834;52.364;9.754;2022-12-10T00:32:05;100168.19;;;-0.20;86.82
76864;BME280;65834;52.364;9.754;2022-12-10T00:34:35;100163.72;;;-0.19;86.79
76864;BME280;65834;52.364;9.754;2022-12-10T00:37:05;100160.75;;;-0.26;87.05
76864;BME280;65834;52.364;9.754;2022-12-10T00:39:37;100169.94;;;-0.30;87.26
76864;BME280;65834;52.364;9.754;2022-12-10T00:42:07;100174.72;;;-0.24;86.71
76864;BME280;65834;52.364;9.754;2022-12-10T00:44:36;100176.69;;;-0.26;86.68
76864;BME280;65834;52.364;9.754;2022-12-10T00:47:07;100178.38;;;-0.25;86.82
76864;BME280;65834;52.364;9.754;2022-12-10T00:49:36;100175.41;;;-0.31;86.79
76864;BME280;65834;52.364;9.754;2022-12-10T00:52:06;100175.78;;;-0.36;87.01
76864;BME280;65834;52.364;9.754;2022-12-10T00:54:38;100180.13;;;-0.35;87.22
76864;BME280;65834;52.364;9.754;2022-12-10T00:57:08;100184.50;;;-0.24;87.39
76864;BME280;65834;52.364;9.754;2022-12-10T00:59:37;100172.34;;;-0.27;86.97
76864;BME280;65834;52.364;9.754;2022-12-10T01:02:07;100177.38;;;-0.24;87.07
76864;BME280;65834;52.364;9.754;2022-12-10T01:04:37;100188.34;;;-0.38;86.89
76864;BME280;65834;52.364;9.754;2022-12-10T01:07:07;100181.56;;;-0.31;87.25
76864;BME280;65834;52.364;9.754;2022-12-10T01:09:40;100187.94;;;-0.33;87.09
76864;BME280;65834;52.364;9.754;2022-12-10T01:12:09;100186.53;;;-0.17;86.79
76864;BME280;65834;52.364;9.754;2022-12-10T01:14:39;100190.94;;;-0.27;86.80
76864;BME280;65834;52.364;9.754;2022-12-10T01:17:08;100190.50;;;-0.32;87.03
76864;BME280;65834;52.364;9.754;2022-12-10T01:19:38;100184.44;;;-0.34;87.28
76864;BME280;65834;52.364;9.754;2022-12-10T01:22:08;100196.19;;;-0.36;87.28
76864;BME280;65834;52.364;9.754;2022-12-10T01:24:40;100196.41;;;-0.28;86.95
76864;BME280;65834;52.364;9.754;2022-12-10T01:27:12;100190.75;;;-0.35;86.96
76864;BME280;65834;52.364;9.754;2022-12-10T01:32:25;100192.03;;;-0.29;87.20
76864;BME280;65834;52.364;9.754;2022-12-10T01:34:55;100202.22;;;-0.34;87.33
76864;BME280;65834;52.364;9.754;2022-12-10T01:37:25;100197.09;;;-0.26;86.95
76864;BME280;65834;52.364;9.754;2022-12-10T01:39:57;100201.13;;;-0.32;87.26
76864;BME280;65834;52.364;9.754;2022-12-10T01:42:28;100204.81;;;-0.23;86.94
76864;BME280;65834;52.364;9.754;2022-12-10T01:45:05;100204.09;;;-0.25;86.83
76864;BME280;65834;52.364;9.754;2022-12-10T01:47:35;100201.63;;;-0.38;87.47
76864;BME280;65834;52.364;9.754;2022-12-10T01:50:07;100209.88;;;-0.41;87.53
76864;BME280;65834;52.364;9.754;2022-12-10T01:52:38;100211.34;;;-0.27;87.23
76864;BME280;65834;52.364;9.754;2022-12-10T01:58:11;100207.22;;;-0.20;86.91
76864;BME280;65834;52.364;9.754;2022-12-10T02:00:53;100212.78;;;-0.23;86.99
76864;BME280;65834;52.364;9.754;2022-12-10T02:03:31;100212.53;;;-0.20;86.65
76864;BME280;65834;52.364;9.754;2022-12-10T02:06:08;100204.72;;;-0.12;86.60
76864;BME280;65834;52.364;9.754;2022-12-10T02:08:48;100212.53;;;-0.20;86.45
76864;BME280;65834;52.364;9.754;2022-12-10T02:11:29;100204.19;;;-0.16;85.98
76864;BME280;65834;52.364;9.754;2022-12-10T02:14:07;100207.34;;;-0.22;85.85
76864;BME280;65834;52.364;9.754;2022-12-10T02:16:43;100212.72;;;-0.12;85.01
76864;BME280;65834;52.364;9.754;2022-12-10T02:19:19;100212.19;;;-0.27;84.76
76864;BME280;65834;52.364;9.754;2022-12-10T02:21:51;100207.22;;;-0.20;84.63
76864;BME280;65834;52.364;9.754;2022-12-10T02:24:27;100204.03;;;-0.14;84.58
76864;BME280;65834;52.364;9.754;2022-12-10T02:27:02;100205.66;;;-0.23;85.20
76864;BME280;65834;52.364;9.754;2022-12-10T02:29:46;100197.69;;;-0.23;84.69
76864;BME280;65834;52.364;9.754;2022-12-10T02:32:20;100189.13;;;-0.26;84.43
76864;BME280;65834;52.364;9.754;2022-12-10T02:34:54;100192.38;;;-0.23;84.16
76864;BME280;65834;52.364;9.754;2022-12-10T02:37:36;100190.94;;;-0.27;84.13
76864;BME280;65834;52.364;9.754;2022-12-10T02:40:11;100191.19;;;-0.30;84.15
76864;BME280;65834;52.364;9.754;2022-12-10T02:42:49;100189.75;;;-0.34;84.30
76864;BME280;65834;52.364;9.754;2022-12-10T02:45:25;100189.31;;;-0.39;84.78
76864;BME280;65834;52.364;9.754;2022-12-10T02:47:59;100196.19;;;-0.36;84.08
76864;BME280;65834;52.364;9.754;2022-12-10T02:50:36;100199.91;;;-0.28;83.86
76864;BME280;65834;52.364;9.754;2022-12-10T02:53:06;100198.66;;;-0.24;83.24
76864;BME280;65834;52.364;9.754;2022-12-10T02:55:47;100202.56;;;-0.28;83.07
76864;BME280;65834;52.364;9.754;2022-12-10T02:58:28;100198.47;;;-0.32;83.29
76864;BME280;65834;52.364;9.754;2022-12-10T03:01:09;100206.63;;;-0.24;82.73
76864;BME280;65834;52.364;9.754;2022-12-10T03:03:45;100203.03;;;-0.34;83.20
76864;BME280;65834;52.364;9.754;2022-12-10T03:06:21;100199.56;;;-0.34;83.32
76864;BME280;65834;52.364;9.754;2022-12-10T03:08:58;100199.56;;;-0.34;83.58
76864;BME280;65834;52.364;9.754;2022-12-10T03:11:28;100201.38;;;-0.35;83.50
76864;BME280;65834;52.364;9.754;2022-12-10T03:14:00;100196.75;;;-0.33;82.82
76864;BME280;65834;52.364;9.754;2022-12-10T03:16:38;100210.44;;;-0.37;82.74
76864;BME280;65834;52.364;9.754;2022-12-10T03:19:11;100207.91;;;-0.39;82.83
76864;BME280;65834;52.364;9.754;2022-12-10T03:21:44;100199.56;;;-0.34;82.91
76864;BME280;65834;52.364;9.754;2022-12-10T03:24:16;100205.50;;;-0.42;82.63
76864;BME280;65834;52.364;9.754;2022-12-10T03:26:48;100196.84;;;-0.44;82.87
76864;BME280;65834;52.364;9.754;2022-12-10T03:29:22;100206.94;;;-0.38;82.80
76864;BME280;65834;52.364;9.754;2022-12-10T03:31:56;100198.84;;;-0.36;82.80
76864;BME280;65834;52.364;9.754;2022-12-10T03:34:26;100196.56;;;-0.41;82.91
76864;BME280;65834;52.364;9.754;2022-12-10T03:36:57;100198.75;;;-0.46;82.94
76864;BME280;65834;52.364;9.754;2022-12-10T03:39:28;100201.63;;;-0.38;83.16
76864;BME280;65834;52.364;9.754;2022-12-10T03:41:58;100202.22;;;-0.34;83.08
76864;BME280;65834;52.364;9.754;2022-12-10T03:44:28;100203.03;;;-0.34;83.47
76864;BME280;65834;52.364;9.754;2022-12-10T03:47:02;100199.34;;;-0.42;83.82
76864;BME280;65834;52.364;9.754;2022-12-10T03:49:32;100196.31;;;-0.38;83.60
76864;BME280;65834;52.364;9.754;2022-12-10T03:52:01;100201.09;;;-0.52;83.80
76864;BME280;65834;52.364;9.754;2022-12-10T03:54:31;100199.59;;;-0.45;83.79
76864;BME280;65834;52.364;9.754;2022-12-10T03:57:01;100204.81;;;-0.44;83.57
76864;BME280;65834;52.364;9.754;2022-12-10T04:05:45;100203.28;;;-0.58;83.93
76864;BME280;65834;52.364;9.754;2022-12-10T04:08:15;100207.50;;;-0.55;84.16
76864;BME280;65834;52.364;9.754;2022-12-10T04:10:44;100211.84;;;-0.54;83.99
76864;BME280;65834;52.364;9.754;2022-12-10T04:13:14;100212.09;;;-0.57;83.87
76864;BME280;65834;52.364;9.754;2022-12-10T04:15:57;100220.50;;;-0.52;83.40
76864;BME280;65834;52.364;9.754;2022-12-10T04:18:40;100220.56;;;-0.63;83.54
76864;BME280;65834;52.364;9.754;2022-12-10T04:21:12;100221.28;;;-0.61;83.93
76864;BME280;65834;52.364;9.754;2022-12-10T04:23:54;100221.78;;;-0.67;84.05
76864;BME280;65834;52.364;9.754;2022-12-10T04:26:36;100223.84;;;-0.71;84.34
76864;BME280;65834;52.364;9.754;2022-12-10T04:29:25;100212.25;;;-0.70;84.29
76864;BME280;65834;52.364;9.754;2022-12-10T04:31:56;100217.97;;;-0.74;84.50
76864;BME280;65834;52.364;9.754;2022-12-10T04:34:26;100220.38;;;-0.71;84.41
76864;BME280;65834;52.364;9.754;2022-12-10T04:37:00;100220.31;;;-0.60;83.77
76864;BME280;65834;52.364;9.754;2022-12-10T04:39:30;100219.13;;;-0.67;83.96
76864;BME280;65834;52.364;9.754;2022-12-10T04:42:00;100214.22;;;-0.72;84.07
76864;BME280;65834;52.364;9.754;2022-12-10T04:44:30;100225.03;;;-0.64;83.76
76864;BME280;65834;52.364;9.754;2022-12-10T04:47:00;100219.97;;;-0.67;83.53
76864;BME280;65834;52.364;9.754;2022-12-10T04:49:29;100217.31;;;-0.67;83.51
76864;BME280;65834;52.364;9.754;2022-12-10T04:52:02;100218.56;;;-0.82;84.20
76864;BME280;65834;52.364;9.754;2022-12-10T04:54:33;100211.72;;;-0.84;83.99
76864;BME280;65834;52.364;9.754;2022-12-10T04:57:05;100214.31;;;-0.73;83.51
76864;BME280;65834;52.364;9.754;2022-12-10T04:59:35;100219.97;;;-0.67;82.89
76864;BME280;65834;52.364;9.754;2022-12-10T05:02:05;100216.34;;;-0.66;82.58
76864;BME280;65834;52.364;9.754;2022-12-10T05:04:35;100218.28;;;-0.68;82.09
76864;BME280;65834;52.364;9.754;2022-12-10T05:07:07;100221.53;;;-0.64;81.64
76864;BME280;65834;52.364;9.754;2022-12-10T05:09:37;100226.38;;;-0.69;82.11
76864;BME280;65834;52.364;9.754;2022-12-10T05:12:07;100226.38;;;-0.69;81.08
76864;BME280;65834;52.364;9.754;2022-12-10T05:14:36;100223.13;;;-0.73;80.95
76864;BME280;65834;52.364;9.754;2022-12-10T05:17:06;100221.53;;;-0.64;81.63
76864;BME280;65834;52.364;9.754;2022-12-10T05:19:35;100222.38;;;-0.64;81.65
76864;BME280;65834;52.364;9.754;2022-12-10T05:22:08;100218.16;;;-0.66;81.91
76864;BME280;65834;52.364;9.754;2022-12-10T05:24:50;100224.69;;;-0.70;81.81
76864;BME280;65834;52.364;9.754;2022-12-10T05:27:20;100219.53;;;-0.72;81.52
76864;BME280;65834;52.364;9.754;2022-12-10T05:29:49;100220.03;;;-0.78;81.94
76864;BME280;65834;52.364;9.754;2022-12-10T05:32:19;100223.38;;;-0.76;81.98
76864;BME280;65834;52.364;9.754;2022-12-10T05:34:48;100220.28;;;-0.81;82.43
76864;BME280;65834;52.364;9.754;2022-12-10T05:37:20;100222.44;;;-0.86;82.74
76864;BME280;65834;52.364;9.754;2022-12-10T05:39:50;100220.88;;;-0.88;83.26
76864;BME280;65834;52.364;9.754;2022-12-10T05:42:19;100220.13;;;-0.79;83.22
76864;BME280;65834;52.364;9.754;2022-12-10T05:44:49;100223.38;;;-0.76;83.00
76864;BME280;65834;52.364;9.754;2022-12-10T05:47:18;100225.84;;;-0.84;83.04
76864;BME280;65834;52.364;9.754;2022-12-10T05:49:48;100229.09;;;-0.80;83.05
76864;BME280;65834;52.364;9.754;2022-12-10T05:52:21;100236.31;;;-0.82;83.02
76864;BME280;65834;52.364;9.754;2022-12-10T05:54:50;100238.72;;;-0.79;82.95
76864;BME280;65834;52.364;9.754;2022-12-10T05:57:20;100242.25;;;-0.90;83.08
76864;BME280;65834;52.364;9.754;2022-12-10T05:59:49;100244.16;;;-0.81;83.08
76864;BME280;65834;52.364;9.754;2022-12-10T06:02:19;100241.75;;;-0.84;83.09
76864;BME280;65834;52.364;9.754;2022-12-10T06:04:48;100244.88;;;-0.79;82.04
76864;BME280;65834;52.364;9.754;2022-12-10T06:07:20;100254.03;;;-0.72;81.53
76864;BME280;65834;52.364;9.754;2022-12-10T06:09:50;100246.22;;;-0.84;82.18
76864;BME280;65834;52.364;9.754;2022-12-10T06:12:20;100257.44;;;-0.81;82.40
76864;BME280;65834;52.364;9.754;2022-12-10T06:14:49;100252.75;;;-0.88;82.08
76864;BME280;65834;52.364;9.754;2022-12-10T06:17:19;100256.25;;;-0.88;81.86
76864;BME280;65834;52.364;9.754;2022-12-10T06:19:48;100258.31;;;-1.02;82.31
76864;BME280;65834;52.364;9.754;2022-12-10T06:22:20;100266.38;;;-1.04;82.69
76864;BME280;65834;52.364;9.754;2022-12-10T06:24:50;100263.63;;;-1.02;82.44
76864;BME280;65834;52.364;9.754;2022-12-10T06:27:20;100263.03;;;-1.06;82.35
76864;BME280;65834;52.364;9.754;2022-12-10T06:29:49;100265.47;;;-1.14;82.47
76864;BME280;65834;52.364;9.754;2022-12-10T06:32:19;100268.59;;;-1.09;82.29
76864;BME280;65834;52.364;9.754;2022-12-10T06:34:48;100267.25;;;-1.15;82.47
76864;BME280;65834;52.364;9.754;2022-12-10T06:37:21;100274.00;;;-1.22;82.76
76864;BME280;65834;52.364;9.754;2022-12-10T06:39:51;100268.59;;;-1.20;82.58
76864;BME280;65834;52.364;9.754;2022-12-10T06:42:21;100267.00;;;-1.23;82.95
76864;BME280;65834;52.364;9.754;2022-12-10T06:44:51;100267.75;;;-1.43;83.34
76864;BME280;65834;52.364;9.754;2022-12-10T06:47:20;100275.09;;;-1.35;83.50
76864;BME280;65834;52.364;9.754;2022-12-10T06:49:50;100270.16;;;-1.29;83.31
76864;BME280;65834;52.364;9.754;2022-12-10T06:52:22;100272.94;;;-1.30;83.16
76864;BME280;65834;52.364;9.754;2022-12-10T06:54:51;100274.50;;;-1.28;83.34
76864;BME280;65834;52.364;9.754;2022-12-10T06:57:21;100278.22;;;-1.19;83.25
76864;BME280;65834;52.364;9.754;2022-12-10T06:59:51;100276.41;;;-1.19;83.24
76864;BME280;65834;52.364;9.754;2022-12-10T07:02:20;100275.47;;;-1.18;82.95
76864;BME280;65834;52.364;9.754;2022-12-10T07:04:50;100278.38;;;-1.21;82.81
76864;BME280;65834;52.364;9.754;2022-12-10T07:07:25;100268.94;;;-1.14;82.75
76864;BME280;65834;52.364;9.754;2022-12-10T07:09:54;100275.22;;;-1.15;82.62
76864;BME280;65834;52.364;9.754;2022-12-10T07:12:24;100285.94;;;-1.05;82.49
76864;BME280;65834;52.364;9.754;2022-12-10T07:14:53;100287.38;;;-1.01;82.11
76864;BME280;65834;52.364;9.754;2022-12-10T07:17:23;100291.13;;;-1.03;82.09
76864;BME280;65834;52.364;9.754;2022-12-10T07:19:53;100286.28;;;-0.98;81.76
76864;BME280;65834;52.364;9.754;2022-12-10T07:22:25;100297.41;;;-1.16;81.78
76864;BME280;65834;52.364;9.754;2022-12-10T07:24:55;100298.25;;;-1.15;82.47
76864;BME280;65834;52.364;9.754;2022-12-10T07:27:25;100303.78;;;-1.07;82.44
76864;BME280;65834;52.364;9.754;2022-12-10T07:29:57;100306.56;;;-1.08;82.38
76864;BME280;65834;52.364;9.754;2022-12-10T07:32:27;100307.41;;;-0.97;81.88
76864;BME280;65834;52.364;9.754;2022-12-10T07:34:56;100307.19;;;-1.05;81.97
76864;BME280;65834;52.364;9.754;2022-12-10T07:37:29;100304.63;;;-1.06;82.28
76864;BME280;65834;52.364;9.754;2022-12-10T07:39:58;100311.41;;;-1.02;82.12
76864;BME280;65834;52.364;9.754;2022-12-10T07:42:28;100318.88;;;-0.96;81.93
76864;BME280;65834;52.364;9.754;2022-12-10T07:44:57;100321.03;;;-1.01;81.96
76864;BME280;65834;52.364;9.754;2022-12-10T07:47:27;100319.59;;;-1.05;82.20
76864;BME280;65834;52.364;9.754;2022-12-10T07:49:57;100320.56;;;-1.06;82.45
76864;BME280;65834;52.364;9.754;2022-12-10T07:52:29;100324.91;;;-1.05;82.22
76864;BME280;65834;52.364;9.754;2022-12-10T07:54:58;100324.16;;;-1.08;82.18
76864;BME280;65834;52.364;9.754;2022-12-10T07:57:28;100329.00;;;-1.13;82.48
76864;BME280;65834;52.364;9.754;2022-12-10T07:59:57;100325.03;;;-1.18;82.34
76864;BME280;65834;52.364;9.754;2022-12-10T08:02:37;100325.13;;;-1.20;82.73
76864;BME280;65834;52.364;9.754;2022-12-10T08:05:08;100330.44;;;-0.97;81.75
76864;BME280;65834;52.364;9.754;2022-12-10T08:07:40;100333.81;;;-1.06;82.01
76864;BME280;65834;52.364;9.754;2022-12-10T08:10:10;100319.94;;;-1.10;82.08
76864;BME280;65834;52.364;9.754;2022-12-10T08:12:39;100331.16;;;-1.06;81.92
76864;BME280;65834;52.364;9.754;2022-12-10T08:15:09;100327.44;;;-1.04;81.84
76864;BME280;65834;52.364;9.754;2022-12-10T08:17:39;100323.91;;;-1.04;82.01
76864;BME280;65834;52.364;9.754;2022-12-10T08:20:09;100331.56;;;-1.11;82.30
76864;BME280;65834;52.364;9.754;2022-12-10T08:22:42;100331.41;;;-0.98;81.87
76864;BME280;65834;52.364;9.754;2022-12-10T08:25:12;100331.16;;;-1.06;82.22
76864;BME280;65834;52.364;9.754;2022-12-10T08:27:41;100336.13;;;-1.02;82.02
76864;BME280;65834;52.364;9.754;2022-12-10T08:30:12;100341.31;;;-1.00;82.07
76864;BME280;65834;52.364;9.754;2022-12-10T08:32:41;100339.84;;;-1.04;82.24
76864;BME280;65834;52.364;9.754;2022-12-10T08:35:11;100338.78;;;-1.02;82.59
76864;BME280;65834;52.364;9.754;2022-12-10T08:37:43;100346.88;;;-0.92;82.38
76864;BME280;65834;52.364;9.754;2022-12-10T08:40:13;100347.81;;;-0.93;82.31
76864;BME280;65834;52.364;9.754;2022-12-10T08:42:42;100348.19;;;-0.87;82.33
76864;BME280;65834;52.364;9.754;2022-12-10T08:45:12;100347.09;;;-0.84;82.06
76864;BME280;65834;52.364;9.754;2022-12-10T08:47:42;100351.19;;;-0.91;82.38
76864;BME280;65834;52.364;9.754;2022-12-10T08:50:11;100354.44;;;-0.88;82.05
76864;BME280;65834;52.364;9.754;2022-12-10T08:52:45;100348.28;;;-0.88;81.92
76864;BME280;65834;52.364;9.754;2022-12-10T08:55:14;100353.97;;;-0.93;82.26
76864;BME280;65834;52.364;9.754;2022-12-10T08:57:44;100345.66;;;-0.99;82.59
76864;BME280;65834;52.364;9.754;2022-12-10T09:00:14;100357.72;;;-0.95;82.62
76864;BME280;65834;52.364;9.754;2022-12-10T09:02:45;100360.38;;;-0.84;82.35
76864;BME280;65834;52.364;9.754;2022-12-10T09:05:15;100360.84;;;-0.79;82.26
76864;BME280;65834;52.364;9.754;2022-12-10T09:07:47;100361.81;;;-0.80;82.18
76864;BME280;65834;52.364;9.754;2022-12-10T09:10:17;100356.84;;;-0.74;82.34
76864;BME280;65834;52.364;9.754;2022-12-10T09:12:47;100361.34;;;-0.74;82.41
76864;BME280;65834;52.364;9.754;2022-12-10T09:15:17;100365.19;;;-0.78;82.25
76864;BME280;65834;52.364;9.754;2022-12-10T09:17:46;100370.75;;;-0.81;82.60
76864;BME280;65834;52.364;9.754;2022-12-10T09:20:16;100372.41;;;-0.91;83.38
76864;BME280;65834;52.364;9.754;2022-12-10T09:22:49;100372.78;;;-0.85;82.80
76864;BME280;65834;52.364;9.754;2022-12-10T09:25:19;100376.53;;;-0.76;82.75
76864;BME280;65834;52.364;9.754;2022-12-10T09:27:49;100379.78;;;-0.84;82.76
76864;BME280;65834;52.364;9.754;2022-12-10T09:30:18;100375.09;;;-0.80;82.82
76864;BME280;65834;52.364;9.754;2022-12-10T09:32:48;100380.72;;;-0.74;82.59
76864;BME280;65834;52.364;9.754;2022-12-10T09:35:18;100383.53;;;-0.97;83.40
76864;BME280;65834;52.364;9.754;2022-12-10T09:37:50;100372.56;;;-0.93;83.49
76864;BME280;65834;52.364;9.754;2022-12-10T09:40:26;100373.25;;;-0.80;83.13
76864;BME280;65834;52.364;9.754;2022-12-10T09:43:00;100387.25;;;-1.00;83.70
76864;BME280;65834;52.364;9.754;2022-12-10T09:45:44;100378.56;;;-0.80;83.10
76864;BME280;65834;52.364;9.754;2022-12-10T09:48:21;100378.69;;;-0.70;83.45
76864;BME280;65834;52.364;9.754;2022-12-10T09:50:59;100382.31;;;-0.71;83.02
76864;BME280;65834;52.364;9.754;2022-12-10T09:53:36;100376.63;;;-0.67;82.93
76864;BME280;65834;52.364;9.754;2022-12-10T09:56:14;100372.16;;;-0.66;83.10
76864;BME280;65834;52.364;9.754;2022-12-10T09:58:48;100376.78;;;-0.68;82.48
76864;BME280;65834;52.364;9.754;2022-12-10T10:01:22;100373.72;;;-0.64;82.56
76864;BME280;65834;52.364;9.754;2022-12-10T10:03:53;100376.88;;;-0.59;82.32
76864;BME280;65834;52.364;9.754;2022-12-10T10:06:24;100378.19;;;-0.64;82.47
76864;BME280;65834;52.364;9.754;2022-12-10T10:09:01;100375.66;;;-0.55;82.08
76864;BME280;65834;52.364;9.754;2022-12-10T10:11:33;100375.53;;;-0.64;82.70
76864;BME280;65834;52.364;9.754;2022-12-10T10:14:06;100375.78;;;-0.67;82.46
76864;BME280;65834;52.364;9.754;2022-12-10T10:16:43;100378.19;;;-0.64;82.28
76864;BME280;65834;52.364;9.754;2022-12-10T10:19:18;100375.19;;;-0.71;82.05
76864;BME280;65834;52.364;9.754;2022-12-10T10:21:50;100374.47;;;-0.62;82.25
76864;BME280;65834;52.364;9.754;2022-12-10T10:24:26;100376.78;;;-0.68;82.81
76864;BME280;65834;52.364;9.754;2022-12-10T10:26:58;100377.25;;;-0.63;82.36
76864;BME280;65834;52.364;9.754;2022-12-10T10:29:31;100378.69;;;-0.59;82.27
76864;BME280;65834;52.364;9.754;2022-12-10T10:32:12;100377.69;;;-0.58;82.64
76864;BME280;65834;52.364;9.754;2022-12-10T10:34:43;100383.63;;;-0.55;81.87
76864;BME280;65834;52.364;9.754;2022-12-10T10:37:16;100369.63;;;-0.57;81.67
76864;BME280;65834;52.364;9.754;2022-12-10T10:39:51;100372.75;;;-0.51;81.63
76864;BME280;65834;52.364;9.754;2022-12-10T10:42:34;100379.28;;;-0.56;81.35
76864;BME280;65834;52.364;9.754;2022-12-10T10:45:09;100371.69;;;-0.60;81.03
76864;BME280;65834;52.364;9.754;2022-12-10T10:48:04;100382.78;;;-0.55;81.15
76864;BME280;65834;52.364;9.754;2022-12-10T10:50:38;100377.22;;;-0.52;80.78
76864;BME280;65834;52.364;9.754;2022-12-10T10:53:31;100377.94;;;-0.50;81.36
76864;BME280;65834;52.364;9.754;2022-12-10T10:56:10;100379.88;;;-0.52;81.50
76864;BME280;65834;52.364;9.754;2022-12-10T10:58:50;100381.22;;;-0.58;81.81
76864;BME280;65834;52.364;9.754;2022-12-10T11:01:23;100386.03;;;-0.51;81.82
76864;BME280;65834;52.364;9.754;2022-12-10T11:03:56;100383.38;;;-0.51;81.77
76864;BME280;65834;52.364;9.754;2022-12-10T11:06:26;100384.94;;;-0.49;80.80
76864;BME280;65834;52.364;9.754;2022-12-10T11:08:57;100379.16;;;-0.54;80.96
76864;BME280;65834;52.364;9.754;2022-12-10T11:11:35;100381.22;;;-0.46;80.40
76864;BME280;65834;52.364;9.754;2022-12-10T11:14:15;100383.03;;;-0.47;80.96
76864;BME280;65834;52.364;9.754;2022-12-10T11:17:00;100383.88;;;-0.46;80.80
76864;BME280;65834;52.364;9.754;2022-12-10T11:19:31;100387.25;;;-0.56;81.29
76864;BME280;65834;52.364;9.754;2022-12-10T11:22:16;100386.41;;;-0.56;82.16
76864;BME280;65834;52.364;9.754;2022-12-10T11:24:46;100382.03;;;-0.46;81.30
76864;BME280;65834;52.364;9.754;2022-12-10T11:27:29;100384.34;;;-0.41;81.20
76864;BME280;65834;52.364;9.754;2022-12-10T11:30:05;100383.63;;;-0.55;81.22
76864;BME280;65834;52.364;9.754;2022-12-10T11:32:49;100374.44;;;-0.50;81.74
76864;BME280;65834;52.364;9.754;2022-12-10T11:35:24;100380.47;;;-0.48;81.39
76864;BME280;65834;52.364;9.754;2022-12-10T11:38:05;100366.34;;;-0.49;81.24
76864;BME280;65834;52.364;9.754;2022-12-10T11:40:45;100375.50;;;-0.42;81.09
76864;BME280;65834;52.364;9.754;2022-12-10T11:43:34;100374.22;;;-0.59;81.16
76864;BME280;65834;52.364;9.754;2022-12-10T11:46:17;100373.72;;;-0.41;81.35
76864;BME280;65834;52.364;9.754;2022-12-10T11:48:56;100375.41;;;-0.40;81.35
76864;BME280;65834;52.364;9.754;2022-12-10T11:51:34;100378.88;;;-0.40;81.26
76864;BME280;65834;52.364;9.754;2022-12-10T11:54:19;100382.78;;;-0.55;81.63
76864;BME280;65834;52.364;9.754;2022-12-10T11:56:57;100378.06;;;-0.51;81.25
76864;BME280;65834;52.364;9.754;2022-12-10T11:59:37;100383.38;;;-0.40;81.09
76864;BME280;65834;52.364;9.754;2022-12-10T12:02:44;100385.03;;;-0.39;81.18
76864;BME280;65834;52.364;9.754;2022-12-10T12:05:31;100380.13;;;-0.44;80.74
76864;BME280;65834;52.364;9.754;2022-12-10T12:08:11;100391.44;;;-0.31;81.08
76864;BME280;65834;52.364;9.754;2022-12-10T12:10:55;100392.31;;;-0.52;81.20
76864;BME280;65834;52.364;9.754;2022-12-10T12:13:33;100386.78;;;-0.49;81.55
76864;BME280;65834;52.364;9.754;2022-12-10T12:16:09;100381.81;;;-0.54;81.25
76864;BME280;65834;52.364;9.754;2022-12-10T12:18:45;100385.78;;;-0.48;81.41
76864;BME280;65834;52.364;9.754;2022-12-10T12:21:16;100383.50;;;-0.53;82.19
76864;BME280;65834;52.364;9.754;2022-12-10T12:23:50;100387.44;;;-0.36;81.74
76864;BME280;65834;52.364;9.754;2022-12-10T12:26:32;100383.03;;;-0.47;82.09
76864;BME280;65834;52.364;9.754;2022-12-10T12:29:11;100384.44;;;-0.43;82.25
76864;BME280;65834;52.364;9.754;2022-12-10T12:31:46;100384.69;;;-0.46;81.70
76864;BME280;65834;52.364;9.754;2022-12-10T12:34:21;100382.25;;;-0.27;81.49
76864;BME280;65834;52.364;9.754;2022-12-10T12:36:54;100386.13;;;-0.31;80.79
76864;BME280;65834;52.364;9.754;2022-12-10T12:39:29;100382.97;;;-0.25;81.14
76864;BME280;65834;52.364;9.754;2022-12-10T12:42:07;100383.94;;;-0.26;81.20
76864;BME280;65834;52.364;9.754;2022-12-10T12:44:56;100385.03;;;-0.39;82.02
76864;BME280;65834;52.364;9.754;2022-12-10T12:47:36;100370.19;;;-0.42;81.08
76864;BME280;65834;52.364;9.754;2022-12-10T12:50:19;100364.44;;;-0.58;81.90
76864;BME280;65834;52.364;9.754;2022-12-10T12:52:54;100378.28;;;-0.32;81.74
76864;BME280;65834;52.364;9.754;2022-12-10T12:55:31;100372.97;;;-0.32;81.08
76864;BME280;65834;52.364;9.754;2022-12-10T12:58:13;100374.31;;;-0.38;81.57
76864;BME280;65834;52.364;9.754;2022-12-10T13:00:49;100378.38;;;-0.34;81.53
76864;BME280;65834;52.364;9.754;2022-12-10T13:03:35;100371.50;;;-0.36;81.58
76864;BME280;65834;52.364;9.754;2022-12-10T13:06:18;100369.94;;;-0.39;81.71
76864;BME280;65834;52.364;9.754;2022-12-10T13:08:49;100383.47;;;-0.42;81.80
76864;BME280;65834;52.364;9.754;2022-12-10T13:11:33;100380.56;;;-0.39;81.49
76864;BME280;65834;52.364;9.754;2022-12-10T13:14:13;100386.28;;;-0.43;81.41
76864;BME280;65834;52.364;9.754;2022-12-10T13:16:55;100386.03;;;-0.40;80.96
76864;BME280;65834;52.364;9.754;2022-12-10T13:19:31;100395.69;;;-0.50;81.41
76864;BME280;65834;52.364;9.754;2022-12-10T13:22:07;100395.41;;;-0.36;80.55
76864;BME280;65834;52.364;9.754;2022-12-10T13:25:03;100391.69;;;-0.45;80.84
76864;BME280;65834;52.364;9.754;2022-12-10T13:27:34;100391.09;;;-0.48;81.33
76864;BME280;65834;52.364;9.754;2022-12-10T13:30:30;100393.16;;;-0.63;82.19
76864;BME280;65834;52.364;9.754;2022-12-10T13:33:13;100399.31;;;-0.51;81.71
76864;BME280;65834;52.364;9.754;2022-12-10T13:35:57;100395.69;;;-0.50;81.83